sensor_id;sensor_type;location;lat;lon;timestamp;P1;durP1;ratioP1;P2;durP2;ratioP2
44766;SDS011;30487;48.716;9.272;2022-12-10T00:00:24;36.42;;;15.98;;
44766;SDS011;30487;48.716;9.272;2022-12-10T00:02:49;38.15;;;16.67;;
44766;SDS011;30487;48.716;9.272;2022-12-10T00:05:15;35.78;;;16.35;;
44766;SDS011;30487;48.716;9.272;2022-12-10T00:07:41;37.50;;;16.52;;
44766;SDS011;30487;48.716;9.272;2022-12-10T00:10:06;32.22;;;15.75;;
44766;SDS011;30487;48.716;9.272;2022-12-10T00:12:32;34.00;;;15.82;;
44766;SDS011;30487;48.716;9.272;2022-12-10T00:14:58;38.28;;;16.40;;
44766;SDS011;30487;48.716;9.272;2022-12-10T00:17:23;38.67;;;17.13;;
44766;SDS011;30487;48.716;9.272;2022-12-10T00:19:49;39.13;;;17.42;;
44766;SDS011;30487;48.716;9.272;2022-12-10T00:22:14;36.47;;;16.13;;
44766;SDS011;30487;48.716;9.272;2022-12-10T00:24:40;36.53;;;16.83;;
44766;SDS011;30487;48.716;9.272;2022-12-10T00:27:05;39.15;;;17.20;;
44766;SDS011;30487;48.716;9.272;2022-12-10T00:29:31;38.13;;;16.52;;
44766;SDS011;30487;48.716;9.272;2022-12-10T00:31:56;32.70;;;15.90;;
44766;SDS011;30487;48.716;9.272;2022-12-10T00:34:22;38.05;;;16.60;;
44766;SDS011;30487;48.716;9.272;2022-12-10T00:36:48;38.65;;;17.45;;
44766;SDS011;30487;48.716;9.272;2022-12-10T00:39:18;35.72;;;16.45;;
44766;SDS011;30487;48.716;9.272;2022-12-10T00:41:45;34.60;;;15.93;;
44766;SDS011;30487;48.716;9.272;2022-12-10T00:44:10;39.63;;;17.60;;
44766;SDS011;30487;48.716;9.272;2022-12-10T00:46:36;36.00;;;16.15;;
44766;SDS011;30487;48.716;9.272;2022-12-10T00:49:02;36.72;;;16.63;;
44766;SDS011;30487;48.716;9.272;2022-12-10T00:51:28;39.38;;;16.88;;
44766;SDS011;30487;48.716;9.272;2022-12-10T00:53:54;34.70;;;15.75;;
44766;SDS011;30487;48.716;9.272;2022-12-10T00:56:22;31.83;;;16.08;;
44766;SDS011;30487;48.716;9.272;2022-12-10T00:58:57;36.50;;;16.45;;
44766;SDS011;30487;48.716;9.272;2022-12-10T01:04:04;33.55;;;15.95;;
44766;SDS011;30487;48.716;9.272;2022-12-10T01:06:33;35.17;;;15.93;;
44766;SDS011;30487;48.716;9.272;2022-12-10T01:09:07;33.45;;;15.93;;
44766;SDS011;30487;48.716;9.272;2022-12-10T01:11:36;34.13;;;15.57;;
44766;SDS011;30487;48.716;9.272;2022-12-10T01:14:03;32.83;;;15.48;;
44766;SDS011;30487;48.716;9.272;2022-12-10T01:16:29;37.67;;;16.35;;
44766;SDS011;30487;48.716;9.272;2022-12-10T01:18:55;33.42;;;15.18;;
44766;SDS011;30487;48.716;9.272;2022-12-10T01:21:22;35.22;;;15.77;;
44766;SDS011;30487;48.716;9.272;2022-12-10T01:23:50;33.50;;;16.05;;
44766;SDS011;30487;48.716;9.272;2022-12-10T01:26:18;35.95;;;15.65;;
44766;SDS011;30487;48.716;9.272;2022-12-10T01:28:47;33.40;;;15.68;;
44766;SDS011;30487;48.716;9.272;2022-12-10T01:31:15;34.55;;;16.60;;
44766;SDS011;30487;48.716;9.272;2022-12-10T01:33:45;34.10;;;16.30;;
44766;SDS011;30487;48.716;9.272;2022-12-10T01:36:12;31.17;;;14.90;;
44766;SDS011;30487;48.716;9.272;2022-12-10T01:38:44;34.33;;;16.35;;
44766;SDS011;30487;48.716;9.272;2022-12-10T01:41:14;34.63;;;16.40;;
44766;SDS011;30487;48.716;9.272;2022-12-10T01:46:21;36.45;;;16.30;;
44766;SDS011;30487;48.716;9.272;2022-12-10T01:48:48;36.28;;;15.90;;
44766;SDS011;30487;48.716;9.272;2022-12-10T01:51:15;38.53;;;16.35;;
44766;SDS011;30487;48.716;9.272;2022-12-10T01:53:41;37.00;;;15.85;;
44766;SDS011;30487;48.716;9.272;2022-12-10T01:56:09;35.33;;;15.85;;
44766;SDS011;30487;48.716;9.272;2022-12-10T01:58:35;35.00;;;15.88;;
44766;SDS011;30487;48.716;9.272;2022-12-10T02:01:11;31.27;;;15.25;;
44766;SDS011;30487;48.716;9.272;2022-12-10T02:06:28;34.83;;;15.02;;
44766;SDS011;30487;48.716;9.272;2022-12-10T02:11:30;37.85;;;16.30;;
44766;SDS011;30487;48.716;9.272;2022-12-10T02:14:08;32.25;;;15.68;;
44766;SDS011;30487;48.716;9.272;2022-12-10T02:20:26;30.73;;;15.18;;
44766;SDS011;30487;48.716;9.272;2022-12-10T02:23:04;31.85;;;15.45;;
44766;SDS011;30487;48.716;9.272;2022-12-10T02:25:41;33.15;;;15.93;;
44766;SDS011;30487;48.716;9.272;2022-12-10T02:28:22;33.92;;;15.60;;
44766;SDS011;30487;48.716;9.272;2022-12-10T02:31:03;32.60;;;14.60;;
44766;SDS011;30487;48.716;9.272;2022-12-10T02:33:30;29.90;;;14.98;;
44766;SDS011;30487;48.716;9.272;2022-12-10T02:35:59;33.58;;;15.13;;
44766;SDS011;30487;48.716;9.272;2022-12-10T02:38:27;34.90;;;15.63;;
44766;SDS011;30487;48.716;9.272;2022-12-10T02:40:59;32.53;;;14.80;;
44766;SDS011;30487;48.716;9.272;2022-12-10T02:43:27;33.30;;;15.77;;
44766;SDS011;30487;48.716;9.272;2022-12-10T02:45:55;37.25;;;15.77;;
44766;SDS011;30487;48.716;9.272;2022-12-10T02:48:23;30.52;;;15.48;;
44766;SDS011;30487;48.716;9.272;2022-12-10T02:50:49;31.85;;;14.80;;
44766;SDS011;30487;48.716;9.272;2022-12-10T02:53:15;31.48;;;14.57;;
44766;SDS011;30487;48.716;9.272;2022-12-10T02:55:50;31.38;;;15.13;;
44766;SDS011;30487;48.716;9.272;2022-12-10T02:58:22;35.38;;;15.32;;
44766;SDS011;30487;48.716;9.272;2022-12-10T03:01:06;34.92;;;15.10;;
44766;SDS011;30487;48.716;9.272;2022-12-10T03:08:59;32.42;;;14.63;;
44766;SDS011;30487;48.716;9.272;2022-12-10T03:11:36;31.23;;;15.25;;
44766;SDS011;30487;48.716;9.272;2022-12-10T03:16:44;28.50;;;14.38;;
44766;SDS011;30487;48.716;9.272;2022-12-10T03:19:15;35.92;;;15.68;;
44766;SDS011;30487;48.716;9.272;2022-12-10T03:21:44;32.63;;;15.20;;
44766;SDS011;30487;48.716;9.272;2022-12-10T03:24:11;30.70;;;14.20;;
44766;SDS011;30487;48.716;9.272;2022-12-10T03:26:37;33.75;;;14.75;;
44766;SDS011;30487;48.716;9.272;2022-12-10T03:29:06;32.95;;;14.82;;
44766;SDS011;30487;48.716;9.272;2022-12-10T03:31:35;30.25;;;14.13;;
44766;SDS011;30487;48.716;9.272;2022-12-10T03:34:02;32.85;;;15.15;;
44766;SDS011;30487;48.716;9.272;2022-12-10T03:36:29;29.27;;;14.13;;
44766;SDS011;30487;48.716;9.272;2022-12-10T03:38:56;31.45;;;14.93;;
44766;SDS011;30487;48.716;9.272;2022-12-10T03:41:22;33.72;;;15.35;;
44766;SDS011;30487;48.716;9.272;2022-12-10T03:43:55;34.67;;;15.32;;
44766;SDS011;30487;48.716;9.272;2022-12-10T03:48:49;28.27;;;13.18;;
44766;SDS011;30487;48.716;9.272;2022-12-10T03:51:15;32.45;;;15.40;;
44766;SDS011;30487;48.716;9.272;2022-12-10T03:53:41;31.15;;;14.48;;
44766;SDS011;30487;48.716;9.272;2022-12-10T03:56:07;31.60;;;14.85;;
44766;SDS011;30487;48.716;9.272;2022-12-10T03:58:33;32.58;;;14.68;;
44766;SDS011;30487;48.716;9.272;2022-12-10T04:00:58;28.02;;;14.23;;
44766;SDS011;30487;48.716;9.272;2022-12-10T04:03:24;31.83;;;14.60;;
44766;SDS011;30487;48.716;9.272;2022-12-10T04:05:50;32.03;;;14.52;;
44766;SDS011;30487;48.716;9.272;2022-12-10T04:08:15;30.63;;;13.85;;
44766;SDS011;30487;48.716;9.272;2022-12-10T04:10:41;28.38;;;13.38;;
44766;SDS011;30487;48.716;9.272;2022-12-10T04:13:06;27.48;;;14.55;;
44766;SDS011;30487;48.716;9.272;2022-12-10T04:15:50;35.00;;;15.32;;
44766;SDS011;30487;48.716;9.272;2022-12-10T04:18:34;29.35;;;13.57;;
44766;SDS011;30487;48.716;9.272;2022-12-10T04:21:00;34.53;;;14.77;;
44766;SDS011;30487;48.716;9.272;2022-12-10T04:23:44;28.20;;;13.30;;
44766;SDS011;30487;48.716;9.272;2022-12-10T04:26:39;29.05;;;13.50;;
44766;SDS011;30487;48.716;9.272;2022-12-10T04:29:17;31.25;;;14.45;;
44766;SDS011;30487;48.716;9.272;2022-12-10T04:32:00;29.42;;;14.77;;
44766;SDS011;30487;48.716;9.272;2022-12-10T04:34:26;31.38;;;14.68;;
44766;SDS011;30487;48.716;9.272;2022-12-10T04:36:52;29.58;;;13.80;;
44766;SDS011;30487;48.716;9.272;2022-12-10T04:39:17;29.75;;;14.43;;
44766;SDS011;30487;48.716;9.272;2022-12-10T04:41:44;31.20;;;13.77;;
44766;SDS011;30487;48.716;9.272;2022-12-10T04:44:11;29.27;;;13.23;;
44766;SDS011;30487;48.716;9.272;2022-12-10T04:46:37;28.65;;;13.60;;
44766;SDS011;30487;48.716;9.272;2022-12-10T04:49:03;27.70;;;13.85;;
44766;SDS011;30487;48.716;9.272;2022-12-10T04:51:30;26.35;;;13.77;;
44766;SDS011;30487;48.716;9.272;2022-12-10T04:53:56;29.85;;;14.05;;
44766;SDS011;30487;48.716;9.272;2022-12-10T04:56:21;27.27;;;13.38;;
44766;SDS011;30487;48.716;9.272;2022-12-10T04:58:47;25.85;;;13.13;;
44766;SDS011;30487;48.716;9.272;2022-12-10T05:01:13;28.50;;;13.38;;
44766;SDS011;30487;48.716;9.272;2022-12-10T05:03:39;27.05;;;13.93;;
44766;SDS011;30487;48.716;9.272;2022-12-10T05:06:06;31.92;;;14.23;;
44766;SDS011;30487;48.716;9.272;2022-12-10T05:08:34;28.90;;;13.90;;
44766;SDS011;30487;48.716;9.272;2022-12-10T05:11:01;30.25;;;13.80;;
44766;SDS011;30487;48.716;9.272;2022-12-10T05:13:46;29.67;;;14.30;;
44766;SDS011;30487;48.716;9.272;2022-12-10T05:16:13;28.23;;;13.38;;
44766;SDS011;30487;48.716;9.272;2022-12-10T05:18:40;26.95;;;13.43;;
44766;SDS011;30487;48.716;9.272;2022-12-10T05:21:08;31.15;;;14.40;;
44766;SDS011;30487;48.716;9.272;2022-12-10T05:23:38;30.92;;;13.95;;
44766;SDS011;30487;48.716;9.272;2022-12-10T05:26:12;31.48;;;14.68;;
44766;SDS011;30487;48.716;9.272;2022-12-10T05:28:45;31.25;;;14.63;;
44766;SDS011;30487;48.716;9.272;2022-12-10T05:31:17;27.15;;;13.65;;
44766;SDS011;30487;48.716;9.272;2022-12-10T05:33:44;29.35;;;13.20;;
44766;SDS011;30487;48.716;9.272;2022-12-10T05:36:11;29.35;;;13.88;;
44766;SDS011;30487;48.716;9.272;2022-12-10T05:38:38;28.65;;;13.35;;
44766;SDS011;30487;48.716;9.272;2022-12-10T05:41:05;29.63;;;14.30;;
44766;SDS011;30487;48.716;9.272;2022-12-10T05:43:37;27.92;;;13.27;;
44766;SDS011;30487;48.716;9.272;2022-12-10T05:46:03;28.35;;;13.40;;
44766;SDS011;30487;48.716;9.272;2022-12-10T05:48:31;28.92;;;12.88;;
44766;SDS011;30487;48.716;9.272;2022-12-10T05:50:57;26.83;;;13.27;;
44766;SDS011;30487;48.716;9.272;2022-12-10T05:53:23;29.80;;;14.10;;
44766;SDS011;30487;48.716;9.272;2022-12-10T05:55:48;26.55;;;13.75;;
44766;SDS011;30487;48.716;9.272;2022-12-10T05:58:14;27.63;;;13.35;;
44766;SDS011;30487;48.716;9.272;2022-12-10T06:00:40;27.08;;;13.30;;
44766;SDS011;30487;48.716;9.272;2022-12-10T06:03:06;25.25;;;12.48;;
44766;SDS011;30487;48.716;9.272;2022-12-10T06:05:36;27.30;;;13.05;;
44766;SDS011;30487;48.716;9.272;2022-12-10T06:08:05;26.65;;;13.38;;
44766;SDS011;30487;48.716;9.272;2022-12-10T06:10:34;28.23;;;13.80;;
44766;SDS011;30487;48.716;9.272;2022-12-10T06:13:01;27.65;;;12.85;;
44766;SDS011;30487;48.716;9.272;2022-12-10T06:15:27;28.08;;;13.82;;
44766;SDS011;30487;48.716;9.272;2022-12-10T06:17:54;26.55;;;13.05;;
44766;SDS011;30487;48.716;9.272;2022-12-10T06:20:20;27.33;;;13.43;;
44766;SDS011;30487;48.716;9.272;2022-12-10T06:22:45;29.73;;;13.43;;
44766;SDS011;30487;48.716;9.272;2022-12-10T06:25:11;28.25;;;13.13;;
44766;SDS011;30487;48.716;9.272;2022-12-10T06:27:36;30.23;;;13.63;;
44766;SDS011;30487;48.716;9.272;2022-12-10T06:30:02;26.60;;;13.35;;
44766;SDS011;30487;48.716;9.272;2022-12-10T06:32:28;28.60;;;13.77;;
44766;SDS011;30487;48.716;9.272;2022-12-10T06:34:53;27.48;;;13.73;;
44766;SDS011;30487;48.716;9.272;2022-12-10T06:37:19;26.35;;;13.07;;
44766;SDS011;30487;48.716;9.272;2022-12-10T06:39:44;31.45;;;13.52;;
44766;SDS011;30487;48.716;9.272;2022-12-10T06:42:10;26.77;;;13.20;;
44766;SDS011;30487;48.716;9.272;2022-12-10T06:44:35;29.45;;;14.05;;
44766;SDS011;30487;48.716;9.272;2022-12-10T06:47:01;23.90;;;13.38;;
44766;SDS011;30487;48.716;9.272;2022-12-10T06:49:26;25.95;;;13.43;;
44766;SDS011;30487;48.716;9.272;2022-12-10T06:51:52;26.55;;;12.82;;
44766;SDS011;30487;48.716;9.272;2022-12-10T06:54:18;29.00;;;13.45;;
44766;SDS011;30487;48.716;9.272;2022-12-10T06:56:43;28.80;;;13.57;;
44766;SDS011;30487;48.716;9.272;2022-12-10T06:59:09;28.98;;;13.88;;
44766;SDS011;30487;48.716;9.272;2022-12-10T07:01:34;31.33;;;14.43;;
44766;SDS011;30487;48.716;9.272;2022-12-10T07:04:02;28.30;;;14.10;;
44766;SDS011;30487;48.716;9.272;2022-12-10T07:06:27;28.73;;;14.07;;
44766;SDS011;30487;48.716;9.272;2022-12-10T07:08:53;27.13;;;13.38;;
44766;SDS011;30487;48.716;9.272;2022-12-10T07:11:20;29.88;;;14.18;;
44766;SDS011;30487;48.716;9.272;2022-12-10T07:13:47;31.00;;;13.95;;
44766;SDS011;30487;48.716;9.272;2022-12-10T07:16:14;28.60;;;13.77;;
44766;SDS011;30487;48.716;9.272;2022-12-10T07:18:45;27.92;;;13.50;;
44766;SDS011;30487;48.716;9.272;2022-12-10T07:23:53;28.75;;;14.40;;
44766;SDS011;30487;48.716;9.272;2022-12-10T07:26:22;28.08;;;14.10;;
44766;SDS011;30487;48.716;9.272;2022-12-10T07:28:48;32.83;;;14.15;;
44766;SDS011;30487;48.716;9.272;2022-12-10T07:31:14;26.88;;;14.10;;
44766;SDS011;30487;48.716;9.272;2022-12-10T07:33:39;30.85;;;14.00;;
44766;SDS011;30487;48.716;9.272;2022-12-10T07:36:06;28.92;;;13.57;;
44766;SDS011;30487;48.716;9.272;2022-12-10T07:38:33;28.45;;;13.73;;
44766;SDS011;30487;48.716;9.272;2022-12-10T07:41:03;27.10;;;12.90;;
44766;SDS011;30487;48.716;9.272;2022-12-10T07:43:33;28.60;;;13.38;;
44766;SDS011;30487;48.716;9.272;2022-12-10T07:46:04;29.90;;;14.13;;
44766;SDS011;30487;48.716;9.272;2022-12-10T07:48:30;30.27;;;14.25;;
44766;SDS011;30487;48.716;9.272;2022-12-10T07:50:56;27.63;;;13.57;;
44766;SDS011;30487;48.716;9.272;2022-12-10T07:53:23;29.13;;;13.15;;
44766;SDS011;30487;48.716;9.272;2022-12-10T07:55:48;28.42;;;13.15;;
44766;SDS011;30487;48.716;9.272;2022-12-10T07:58:15;22.98;;;12.35;;
44766;SDS011;30487;48.716;9.272;2022-12-10T08:00:40;27.80;;;13.38;;
44766;SDS011;30487;48.716;9.272;2022-12-10T08:03:06;29.02;;;12.80;;
44766;SDS011;30487;48.716;9.272;2022-12-10T08:05:32;29.05;;;13.18;;
44766;SDS011;30487;48.716;9.272;2022-12-10T08:07:57;33.17;;;13.85;;
44766;SDS011;30487;48.716;9.272;2022-12-10T08:10:23;26.35;;;12.57;;
44766;SDS011;30487;48.716;9.272;2022-12-10T08:12:48;27.75;;;13.05;;
44766;SDS011;30487;48.716;9.272;2022-12-10T08:15:14;27.35;;;13.75;;
44766;SDS011;30487;48.716;9.272;2022-12-10T08:17:39;27.73;;;13.50;;
44766;SDS011;30487;48.716;9.272;2022-12-10T08:20:05;27.20;;;12.70;;
44766;SDS011;30487;48.716;9.272;2022-12-10T08:22:32;28.13;;;13.43;;
44766;SDS011;30487;48.716;9.272;2022-12-10T08:24:59;28.95;;;13.40;;
44766;SDS011;30487;48.716;9.272;2022-12-10T08:27:24;27.23;;;13.63;;
44766;SDS011;30487;48.716;9.272;2022-12-10T08:29:50;25.75;;;13.48;;
44766;SDS011;30487;48.716;9.272;2022-12-10T08:32:16;29.95;;;13.77;;
44766;SDS011;30487;48.716;9.272;2022-12-10T08:34:41;26.80;;;13.50;;
44766;SDS011;30487;48.716;9.272;2022-12-10T08:37:07;28.95;;;13.50;;
44766;SDS011;30487;48.716;9.272;2022-12-10T08:39:33;24.15;;;12.43;;
44766;SDS011;30487;48.716;9.272;2022-12-10T08:41:58;25.67;;;12.82;;
44766;SDS011;30487;48.716;9.272;2022-12-10T08:44:24;24.98;;;12.90;;
44766;SDS011;30487;48.716;9.272;2022-12-10T08:46:49;27.48;;;13.10;;
44766;SDS011;30487;48.716;9.272;2022-12-10T08:49:15;28.02;;;12.90;;
44766;SDS011;30487;48.716;9.272;2022-12-10T08:51:41;29.08;;;13.27;;
44766;SDS011;30487;48.716;9.272;2022-12-10T09:07:33;26.60;;;14.27;;
44766;SDS011;30487;48.716;9.272;2022-12-10T09:09:58;28.75;;;13.93;;
44766;SDS011;30487;48.716;9.272;2022-12-10T09:12:24;25.75;;;13.65;;
44766;SDS011;30487;48.716;9.272;2022-12-10T09:14:49;26.95;;;13.68;;
44766;SDS011;30487;48.716;9.272;2022-12-10T09:17:15;25.52;;;13.45;;
44766;SDS011;30487;48.716;9.272;2022-12-10T09:19:41;29.10;;;13.55;;
44766;SDS011;30487;48.716;9.272;2022-12-10T09:22:06;23.48;;;12.70;;
44766;SDS011;30487;48.716;9.272;2022-12-10T09:24:33;27.67;;;13.70;;
44766;SDS011;30487;48.716;9.272;2022-12-10T09:26:59;28.15;;;13.25;;
44766;SDS011;30487;48.716;9.272;2022-12-10T09:29:25;25.90;;;13.15;;
44766;SDS011;30487;48.716;9.272;2022-12-10T09:31:51;29.35;;;13.77;;
44766;SDS011;30487;48.716;9.272;2022-12-10T09:34:17;26.45;;;12.93;;
44766;SDS011;30487;48.716;9.272;2022-12-10T09:36:43;26.15;;;13.90;;
44766;SDS011;30487;48.716;9.272;2022-12-10T09:39:09;26.80;;;14.30;;
44766;SDS011;30487;48.716;9.272;2022-12-10T09:47:06;26.42;;;12.25;;
44766;SDS011;30487;48.716;9.272;2022-12-10T09:52:19;26.85;;;13.60;;
44766;SDS011;30487;48.716;9.272;2022-12-10T09:54:48;24.63;;;12.30;;
44766;SDS011;30487;48.716;9.272;2022-12-10T09:57:25;30.90;;;13.93;;
44766;SDS011;30487;48.716;9.272;2022-12-10T10:00:04;28.67;;;13.57;;
44766;SDS011;30487;48.716;9.272;2022-12-10T10:02:40;25.35;;;12.73;;
44766;SDS011;30487;48.716;9.272;2022-12-10T10:07:32;28.65;;;13.52;;
44766;SDS011;30487;48.716;9.272;2022-12-10T10:10:02;26.55;;;12.88;;
44766;SDS011;30487;48.716;9.272;2022-12-10T10:12:31;27.77;;;13.65;;
44766;SDS011;30487;48.716;9.272;2022-12-10T10:14:58;25.23;;;13.23;;
44766;SDS011;30487;48.716;9.272;2022-12-10T10:17:45;22.48;;;12.85;;
44766;SDS011;30487;48.716;9.272;2022-12-10T10:20:12;25.83;;;12.93;;
44766;SDS011;30487;48.716;9.272;2022-12-10T10:22:38;30.77;;;13.93;;
44766;SDS011;30487;48.716;9.272;2022-12-10T10:25:05;26.85;;;13.55;;
44766;SDS011;30487;48.716;9.272;2022-12-10T10:27:38;32.38;;;14.02;;
44766;SDS011;30487;48.716;9.272;2022-12-10T10:30:04;27.73;;;14.45;;
44766;SDS011;30487;48.716;9.272;2022-12-10T10:35:02;30.63;;;14.13;;
44766;SDS011;30487;48.716;9.272;2022-12-10T10:37:30;28.77;;;14.65;;
44766;SDS011;30487;48.716;9.272;2022-12-10T10:40:05;30.17;;;14.10;;
44766;SDS011;30487;48.716;9.272;2022-12-10T10:42:35;30.42;;;14.80;;
44766;SDS011;30487;48.716;9.272;2022-12-10T10:45:03;27.35;;;15.30;;
44766;SDS011;30487;48.716;9.272;2022-12-10T10:47:50;30.45;;;14.70;;
44766;SDS011;30487;48.716;9.272;2022-12-10T10:50:38;28.90;;;13.73;;
44766;SDS011;30487;48.716;9.272;2022-12-10T10:55:53;26.73;;;13.70;;
44766;SDS011;30487;48.716;9.272;2022-12-10T10:58:22;26.88;;;13.75;;
44766;SDS011;30487;48.716;9.272;2022-12-10T11:00:53;25.88;;;14.07;;
44766;SDS011;30487;48.716;9.272;2022-12-10T11:03:24;27.83;;;13.15;;
44766;SDS011;30487;48.716;9.272;2022-12-10T11:05:51;25.88;;;12.80;;
44766;SDS011;30487;48.716;9.272;2022-12-10T11:08:17;26.70;;;13.10;;
44766;SDS011;30487;48.716;9.272;2022-12-10T11:10:46;28.67;;;13.73;;
44766;SDS011;30487;48.716;9.272;2022-12-10T11:13:35;27.30;;;12.90;;
44766;SDS011;30487;48.716;9.272;2022-12-10T11:18:38;25.60;;;13.57;;
44766;SDS011;30487;48.716;9.272;2022-12-10T11:23:39;24.63;;;12.68;;
44766;SDS011;30487;48.716;9.272;2022-12-10T11:44:39;25.60;;;13.63;;
44766;SDS011;30487;48.716;9.272;2022-12-10T11:49:39;26.95;;;12.95;;
44766;SDS011;30487;48.716;9.272;2022-12-10T11:52:20;28.50;;;13.50;;
44766;SDS011;30487;48.716;9.272;2022-12-10T12:00:53;26.15;;;13.55;;
44766;SDS011;30487;48.716;9.272;2022-12-10T12:03:59;27.75;;;13.15;;
44766;SDS011;30487;48.716;9.272;2022-12-10T12:11:32;25.60;;;12.57;;
44766;SDS011;30487;48.716;9.272;2022-12-10T12:14:06;23.98;;;12.75;;
44766;SDS011;30487;48.716;9.272;2022-12-10T12:19:49;25.55;;;12.95;;
44766;SDS011;30487;48.716;9.272;2022-12-10T12:24:54;29.63;;;14.23;;
44766;SDS011;30487;48.716;9.272;2022-12-10T12:27:29;26.48;;;12.65;;
44766;SDS011;30487;48.716;9.272;2022-12-10T12:32:31;24.77;;;12.35;;
44766;SDS011;30487;48.716;9.272;2022-12-10T12:35:49;26.35;;;12.55;;
44766;SDS011;30487;48.716;9.272;2022-12-10T12:37:59;23.20;;;11.93;;
44766;SDS011;30487;48.716;9.272;2022-12-10T12:41:15;24.90;;;12.80;;
44766;SDS011;30487;48.716;9.272;2022-12-10T12:43:31;25.30;;;12.32;;
44766;SDS011;30487;48.716;9.272;2022-12-10T12:46:38;25.65;;;12.50;;
44766;SDS011;30487;48.716;9.272;2022-12-10T12:49:10;27.98;;;12.85;;
44766;SDS011;30487;48.716;9.272;2022-12-10T12:52:04;24.15;;;12.10;;
44766;SDS011;30487;48.716;9.272;2022-12-10T12:54:43;23.85;;;12.10;;
44766;SDS011;30487;48.716;9.272;2022-12-10T12:57:17;25.77;;;12.50;;
44766;SDS011;30487;48.716;9.272;2022-12-10T12:59:51;23.45;;;12.30;;
44766;SDS011;30487;48.716;9.272;2022-12-10T13:02:38;21.95;;;12.00;;
44766;SDS011;30487;48.716;9.272;2022-12-10T13:05:12;22.85;;;11.63;;
44766;SDS011;30487;48.716;9.272;2022-12-10T13:07:41;27.23;;;12.57;;
44766;SDS011;30487;48.716;9.272;2022-12-10T13:10:09;23.63;;;12.13;;
44766;SDS011;30487;48.716;9.272;2022-12-10T13:26:26;23.75;;;11.30;;
44766;SDS011;30487;48.716;9.272;2022-12-10T13:28:54;19.90;;;10.52;;
44766;SDS011;30487;48.716;9.272;2022-12-10T13:31:35;21.63;;;10.57;;
44766;SDS011;30487;48.716;9.272;2022-12-10T13:36:34;24.95;;;11.27;;
44766;SDS011;30487;48.716;9.272;2022-12-10T13:41:33;21.20;;;10.98;;
44766;SDS011;30487;48.716;9.272;2022-12-10T13:49:45;21.02;;;10.68;;
44766;SDS011;30487;48.716;9.272;2022-12-10T13:55:30;22.58;;;11.07;;
44766;SDS011;30487;48.716;9.272;2022-12-10T13:58:19;24.33;;;11.35;;
44766;SDS011;30487;48.716;9.272;2022-12-10T14:06:51;22.00;;;10.50;;
44766;SDS011;30487;48.716;9.272;2022-12-10T14:09:21;19.75;;;10.25;;
44766;SDS011;30487;48.716;9.272;2022-12-10T14:12:01;19.38;;;10.07;;
44766;SDS011;30487;48.716;9.272;2022-12-10T14:17:11;22.17;;;10.80;;
44766;SDS011;30487;48.716;9.272;2022-12-10T14:19:41;21.92;;;10.32;;
44766;SDS011;30487;48.716;9.272;2022-12-10T14:22:13;26.40;;;12.63;;
44766;SDS011;30487;48.716;9.272;2022-12-10T14:24:48;24.42;;;11.98;;
44766;SDS011;30487;48.716;9.272;2022-12-10T14:27:17;22.85;;;12.18;;
44766;SDS011;30487;48.716;9.272;2022-12-10T14:29:45;23.85;;;11.82;;
44766;SDS011;30487;48.716;9.272;2022-12-10T14:32:24;23.55;;;12.13;;
44766;SDS011;30487;48.716;9.272;2022-12-10T14:34:55;26.52;;;13.07;;
44766;SDS011;30487;48.716;9.272;2022-12-10T14:37:23;28.55;;;13.75;;
44766;SDS011;30487;48.716;9.272;2022-12-10T14:39:51;28.42;;;13.23;;
44766;SDS011;30487;48.716;9.272;2022-12-10T14:42:17;26.17;;;12.57;;
44766;SDS011;30487;48.716;9.272;2022-12-10T14:44:43;28.52;;;13.80;;
44766;SDS011;30487;48.716;9.272;2022-12-10T14:49:44;24.55;;;12.48;;
44766;SDS011;30487;48.716;9.272;2022-12-10T14:52:16;27.08;;;12.95;;
44766;SDS011;30487;48.716;9.272;2022-12-10T14:54:44;24.83;;;12.57;;
44766;SDS011;30487;48.716;9.272;2022-12-10T14:57:15;24.65;;;12.15;;
44766;SDS011;30487;48.716;9.272;2022-12-10T14:59:49;26.92;;;12.38;;
44766;SDS011;30487;48.716;9.272;2022-12-10T15:02:32;24.33;;;12.65;;
44766;SDS011;30487;48.716;9.272;2022-12-10T15:05:00;23.67;;;12.18;;
44766;SDS011;30487;48.716;9.272;2022-12-10T15:07:31;25.60;;;12.63;;
44766;SDS011;30487;48.716;9.272;2022-12-10T15:10:00;24.50;;;10.88;;
44766;SDS011;30487;48.716;9.272;2022-12-10T15:12:37;28.45;;;12.68;;
44766;SDS011;30487;48.716;9.272;2022-12-10T15:15:12;28.83;;;13.18;;
44766;SDS011;30487;48.716;9.272;2022-12-10T15:17:42;26.05;;;12.88;;
44766;SDS011;30487;48.716;9.272;2022-12-10T15:20:30;27.65;;;12.43;;
44766;SDS011;30487;48.716;9.272;2022-12-10T15:23:07;25.10;;;12.10;;
44766;SDS011;30487;48.716;9.272;2022-12-10T15:25:45;26.08;;;12.13;;
44766;SDS011;30487;48.716;9.272;2022-12-10T15:30:47;24.85;;;11.35;;
44766;SDS011;30487;48.716;9.272;2022-12-10T15:33:38;24.65;;;11.90;;
44766;SDS011;30487;48.716;9.272;2022-12-10T15:39:19;30.33;;;13.23;;
44766;SDS011;30487;48.716;9.272;2022-12-10T15:41:48;23.73;;;11.68;;
44766;SDS011;30487;48.716;9.272;2022-12-10T15:49:34;23.73;;;11.82;;
44766;SDS011;30487;48.716;9.272;2022-12-10T15:52:00;25.20;;;12.38;;
44766;SDS011;30487;48.716;9.272;2022-12-10T15:54:32;25.52;;;11.68;;
44766;SDS011;30487;48.716;9.272;2022-12-10T15:57:00;22.35;;;11.38;;
44766;SDS011;30487;48.716;9.272;2022-12-10T15:59:35;25.17;;;11.65;;
44766;SDS011;30487;48.716;9.272;2022-12-10T16:02:01;26.52;;;11.65;;
44766;SDS011;30487;48.716;9.272;2022-12-10T16:04:27;25.95;;;11.85;;
44766;SDS011;30487;48.716;9.272;2022-12-10T16:06:53;23.98;;;11.55;;
44766;SDS011;30487;48.716;9.272;2022-12-10T16:09:19;26.17;;;12.20;;
44766;SDS011;30487;48.716;9.272;2022-12-10T16:11:44;27.58;;;12.60;;
44766;SDS011;30487;48.716;9.272;2022-12-10T16:14:10;24.67;;;12.00;;
44766;SDS011;30487;48.716;9.272;2022-12-10T16:16:38;23.83;;;11.60;;
44766;SDS011;30487;48.716;9.272;2022-12-10T16:19:07;24.25;;;11.23;;
44766;SDS011;30487;48.716;9.272;2022-12-10T16:21:35;26.58;;;11.80;;
44766;SDS011;30487;48.716;9.272;2022-12-10T16:24:00;25.30;;;12.18;;
44766;SDS011;30487;48.716;9.272;2022-12-10T16:26:26;27.83;;;12.25;;
44766;SDS011;30487;48.716;9.272;2022-12-10T16:28:51;22.58;;;10.88;;
44766;SDS011;30487;48.716;9.272;2022-12-10T16:31:18;25.33;;;11.95;;
44766;SDS011;30487;48.716;9.272;2022-12-10T16:33:45;24.45;;;11.63;;
44766;SDS011;30487;48.716;9.272;2022-12-10T16:36:12;24.42;;;11.88;;
44766;SDS011;30487;48.716;9.272;2022-12-10T16:38:38;24.17;;;12.10;;
44766;SDS011;30487;48.716;9.272;2022-12-10T16:41:06;22.35;;;10.93;;
44766;SDS011;30487;48.716;9.272;2022-12-10T16:43:43;24.20;;;10.82;;
44766;SDS011;30487;48.716;9.272;2022-12-10T16:46:09;20.02;;;10.20;;
44766;SDS011;30487;48.716;9.272;2022-12-10T16:48:36;25.73;;;11.50;;
44766;SDS011;30487;48.716;9.272;2022-12-10T16:51:02;21.48;;;10.98;;
44766;SDS011;30487;48.716;9.272;2022-12-10T16:53:28;23.17;;;11.63;;
44766;SDS011;30487;48.716;9.272;2022-12-10T16:55:56;21.05;;;10.65;;
44766;SDS011;30487;48.716;9.272;2022-12-10T16:58:23;24.65;;;11.77;;
44766;SDS011;30487;48.716;9.272;2022-12-10T17:00:49;22.90;;;11.10;;
44766;SDS011;30487;48.716;9.272;2022-12-10T17:03:18;22.40;;;11.27;;
44766;SDS011;30487;48.716;9.272;2022-12-10T17:05:56;21.48;;;10.75;;